Milingimbi, Australia
Current Conditions -  °F | °C
As of 11:11 PM on Saturday 22 Nov 2014 (Local Time) from YPGV Reporting Station
Scattered Clouds Scattered Clouds  
Wind Chill: 75°   Ceiling: Unl
Heat Index: 75°   Visibility: 6mi
Dew Point: 73°   Wind: 0mph
Humidity: 94%   Direction: NA
Pressure: 29.85"   Gusts: NA
Location:  12.09°S, 134.89°E
Report Text: YPGV 221411Z AUTO 00000KT 9999 // SCT014 24/23 Q1011
Loading
Personal Weather Stations






























Interactive Weather Map New forecast layout! Learn more

10-Day Weather Forecast

Advertisements
Track Severe Weather on mobile